Time,TemperatureF,DewpointF,PressureIn,WindDirection,WindDirectionDegrees,WindSpeedMPH,WindSpeedGustMPH,Humidity,HourlyPrecipIn,Conditions,Clouds,dailyrainin,SoftwareType,DateUTC
2013-01-12 00:00:00,57.6,57.0,30.19,South,180,0.0,0.0,98,-99.99,,,-99.99,WeatherSnoop3.0,2013-01-12 05:00:00,
2013-01-12 00:01:00,57.6,57.0,30.19,South,180,0.0,0.0,98,-99.99,,,-99.99,WeatherSnoop3.0,2013-01-12 05:01:00,
2013-01-12 00:04:00,57.4,56.8,30.20,South,180,0.0,0.0,98,-99.99,,,-99.99,WeatherSnoop3.0,2013-01-12 05:04:00,
2013-01-12 00:07:00,57.6,57.0,30.20,South,180,0.0,0.0,98,-99.99,,,-99.99,WeatherSnoop3.0,2013-01-12 05:07:00,
2013-01-12 00:12:00,57.7,57.2,30.20,South,180,0.0,0.0,98,-99.99,,,-99.99,WeatherSnoop3.0,2013-01-12 05:12:00,
2013-01-12 00:17:00,57.6,57.0,30.19,South,180,0.0,0.0,98,-99.99,,,-99.99,WeatherSnoop3.0,2013-01-12 05:17:00,
2013-01-12 00:22:00,57.4,56.8,30.19,South,180,0.0,0.0,98,-99.99,,,-99.99,WeatherSnoop3.0,2013-01-12 05:22:00,
2013-01-12 00:27:00,57.6,57.0,30.19,South,180,0.0,0.0,98,-99.99,,,-99.99,WeatherSnoop3.0,2013-01-12 05:27:00,
2013-01-12 00:32:00,57.6,57.0,30.19,South,180,0.0,0.0,98,-99.99,,,-99.99,WeatherSnoop3.0,2013-01-12 05:32:00,
2013-01-12 00:37:00,57.6,57.0,30.19,South,180,0.0,0.0,98,-99.99,,,-99.99,WeatherSnoop3.0,2013-01-12 05:37:00,
2013-01-12 00:42:00,57.4,56.8,30.19,South,180,0.0,0.0,98,-99.99,,,-99.99,WeatherSnoop3.0,2013-01-12 05:42:00,
2013-01-12 00:47:00,57.4,56.8,30.19,South,180,0.0,0.0,98,-99.99,,,-99.99,WeatherSnoop3.0,2013-01-12 05:47:00,
2013-01-12 00:52:00,57.6,57.0,30.19,South,180,0.0,0.0,98,-99.99,,,-99.99,WeatherSnoop3.0,2013-01-12 05:52:00,
2013-01-12 00:57:00,57.6,57.0,30.19,South,180,0.0,0.0,98,-99.99,,,-99.99,WeatherSnoop3.0,2013-01-12 05:57:00,
2013-01-12 01:02:00,57.6,57.0,30.19,South,180,0.0,0.0,98,-99.99,,,-99.99,WeatherSnoop3.0,2013-01-12 06:02:00,
2013-01-12 01:07:00,57.4,56.8,30.19,South,180,0.0,0.0,98,-99.99,,,-99.99,WeatherSnoop3.0,2013-01-12 06:07:00,
2013-01-12 01:12:00,57.4,56.8,30.19,South,180,0.0,0.0,98,-99.99,,,-99.99,WeatherSnoop3.0,2013-01-12 06:12:00,
2013-01-12 01:17:00,57.7,57.2,30.19,South,180,0.0,0.0,98,-99.99,,,-99.99,WeatherSnoop3.0,2013-01-12 06:17:00,
2013-01-12 01:22:00,57.7,57.2,30.18,South,180,0.0,0.0,98,-99.99,,,-99.99,WeatherSnoop3.0,2013-01-12 06:22:00,
2013-01-12 01:27:00,58.1,57.5,30.18,South,180,0.0,0.0,98,-99.99,,,-99.99,WeatherSnoop3.0,2013-01-12 06:27:00,
2013-01-12 01:32:00,58.6,58.1,30.19,South,180,0.0,0.0,98,-99.99,,,-99.99,WeatherSnoop3.0,2013-01-12 06:32:00,
2013-01-12 01:37:00,58.8,58.3,30.18,South,180,0.0,0.0,98,-99.99,,,-99.99,WeatherSnoop3.0,2013-01-12 06:37:00,
2013-01-12 01:42:00,59.4,58.8,30.18,South,180,0.0,0.0,98,-99.99,,,-99.99,WeatherSnoop3.0,2013-01-12 06:42:00,
2013-01-12 01:47:00,59.4,58.5,30.19,South,180,0.0,0.0,97,-99.99,,,-99.99,WeatherSnoop3.0,2013-01-12 06:47:00,
2013-01-12 01:52:00,59.7,59.2,30.18,South,180,0.0,0.0,98,-99.99,,,-99.99,WeatherSnoop3.0,2013-01-12 06:52:00,
2013-01-12 01:57:00,59.9,59.3,30.18,South,180,0.0,0.0,98,-99.99,,,-99.99,WeatherSnoop3.0,2013-01-12 06:57:00,
2013-01-12 02:02:00,59.9,59.3,30.19,South,180,0.0,0.0,98,-99.99,,,-99.99,WeatherSnoop3.0,2013-01-12 07:02:00,
2013-01-12 02:07:00,59.9,59.3,30.19,South,180,0.0,0.0,98,-99.99,,,-99.99,WeatherSnoop3.0,2013-01-12 07:07:00,
2013-01-12 02:12:00,60.1,59.5,30.19,South,180,0.0,0.0,98,-99.99,,,-99.99,WeatherSnoop3.0,2013-01-12 07:12:00,
2013-01-12 02:17:00,59.7,59.2,30.19,South,180,0.0,0.0,98,-99.99,,,-99.99,WeatherSnoop3.0,2013-01-12 07:17:00,
2013-01-12 02:22:00,59.5,59.0,30.19,South,180,0.0,0.0,98,-99.99,,,-99.99,WeatherSnoop3.0,2013-01-12 07:22:00,
2013-01-12 02:27:00,59.4,58.8,30.19,South,180,0.0,0.0,98,-99.99,,,-99.99,WeatherSnoop3.0,2013-01-12 07:27:00,
2013-01-12 02:32:00,59.2,58.6,30.19,South,180,0.0,0.0,98,-99.99,,,-99.99,WeatherSnoop3.0,2013-01-12 07:32:00,
2013-01-12 02:37:00,59.0,58.4,30.19,South,180,0.0,0.0,98,-99.99,,,-99.99,WeatherSnoop3.0,2013-01-12 07:37:00,
2013-01-12 02:42:00,58.8,58.5,30.19,South,180,0.0,0.0,99,-99.99,,,-99.99,WeatherSnoop3.0,2013-01-12 07:42:00,
2013-01-12 02:47:00,59.0,58.4,30.19,South,180,0.0,0.0,98,-99.99,,,-99.99,WeatherSnoop3.0,2013-01-12 07:47:00,
2013-01-12 02:52:00,58.8,58.5,30.19,South,180,0.0,0.0,99,-99.99,,,-99.99,WeatherSnoop3.0,2013-01-12 07:52:00,
2013-01-12 02:57:00,58.6,58.4,30.19,South,180,0.0,0.0,99,-99.99,,,-99.99,WeatherSnoop3.0,2013-01-12 07:57:00,
2013-01-12 03:02:00,58.5,58.2,30.19,South,180,0.0,0.0,99,-99.99,,,-99.99,WeatherSnoop3.0,2013-01-12 08:02:00,
2013-01-12 03:07:00,58.6,58.4,30.19,South,180,0.0,0.0,99,-99.99,,,-99.99,WeatherSnoop3.0,2013-01-12 08:07:00,
2013-01-12 03:12:00,58.3,58.0,30.18,South,180,0.0,0.0,99,-99.99,,,-99.99,WeatherSnoop3.0,2013-01-12 08:12:00,
2013-01-12 03:17:00,57.9,57.6,30.19,South,180,0.0,0.0,99,-99.99,,,-99.99,WeatherSnoop3.0,2013-01-12 08:17:00,
2013-01-12 03:22:00,57.9,57.6,30.18,South,180,0.0,0.0,99,-99.99,,,-99.99,WeatherSnoop3.0,2013-01-12 08:22:00,
2013-01-12 03:27:00,58.1,57.8,30.18,South,180,0.0,0.0,99,-99.99,,,-99.99,WeatherSnoop3.0,2013-01-12 08:27:00,
2013-01-12 03:32:00,58.6,58.4,30.18,South,180,0.0,0.0,99,-99.99,,,-99.99,WeatherSnoop3.0,2013-01-12 08:32:00,
2013-01-12 03:37:00,58.3,58.0,30.18,South,180,0.0,0.0,99,-99.99,,,-99.99,WeatherSnoop3.0,2013-01-12 08:37:00,
2013-01-12 03:42:00,57.9,57.6,30.18,South,180,0.0,0.0,99,-99.99,,,-99.99,WeatherSnoop3.0,2013-01-12 08:42:00,
2013-01-12 03:47:00,57.7,57.5,30.17,South,180,0.0,0.0,99,-99.99,,,-99.99,WeatherSnoop3.0,2013-01-12 08:47:00,
2013-01-12 03:52:00,57.7,57.5,30.17,South,180,0.0,0.0,99,-99.99,,,-99.99,WeatherSnoop3.0,2013-01-12 08:52:00,
2013-01-12 03:57:00,57.9,57.6,30.17,South,180,0.0,0.0,99,-99.99,,,-99.99,WeatherSnoop3.0,2013-01-12 08:57:00,
2013-01-12 04:02:00,58.1,57.8,30.17,South,180,0.0,0.0,99,-99.99,,,-99.99,WeatherSnoop3.0,2013-01-12 09:02:00,
2013-01-12 04:07:00,58.3,58.0,30.17,South,180,0.0,0.0,99,-99.99,,,-99.99,WeatherSnoop3.0,2013-01-12 09:07:00,
2013-01-12 04:13:00,57.9,57.6,30.16,South,180,0.0,0.0,99,-99.99,,,-99.99,WeatherSnoop3.0,2013-01-12 09:13:00,
2013-01-12 04:18:00,57.7,57.5,30.17,South,180,0.0,0.0,99,-99.99,,,-99.99,WeatherSnoop3.0,2013-01-12 09:18:00,
2013-01-12 04:23:00,57.7,57.5,30.17,South,180,0.0,0.0,99,-99.99,,,-99.99,WeatherSnoop3.0,2013-01-12 09:23:00,
2013-01-12 04:28:00,57.7,57.5,30.16,South,180,0.0,0.0,99,-99.99,,,-99.99,WeatherSnoop3.0,2013-01-12 09:28:00,
2013-01-12 04:33:00,57.6,57.3,30.17,South,180,0.0,0.0,99,-99.99,,,-99.99,WeatherSnoop3.0,2013-01-12 09:33:00,
2013-01-12 04:38:00,57.4,57.1,30.16,South,180,0.0,0.0,99,-99.99,,,-99.99,WeatherSnoop3.0,2013-01-12 09:38:00,
2013-01-12 04:43:00,57.2,56.9,30.16,South,180,0.0,0.0,99,-99.99,,,-99.99,WeatherSnoop3.0,2013-01-12 09:43:00,
2013-01-12 04:48:00,57.0,56.7,30.16,South,180,0.0,0.0,99,-99.99,,,-99.99,WeatherSnoop3.0,2013-01-12 09:48:00,
2013-01-12 04:53:00,57.0,56.7,30.16,South,180,0.0,0.0,99,-99.99,,,-99.99,WeatherSnoop3.0,2013-01-12 09:53:00,
2013-01-12 04:58:00,57.0,56.7,30.16,South,180,0.0,0.0,99,-99.99,,,-99.99,WeatherSnoop3.0,2013-01-12 09:58:00,
2013-01-12 05:03:00,57.0,56.7,30.16,South,180,0.0,0.0,99,-99.99,,,-99.99,WeatherSnoop3.0,2013-01-12 10:03:00,
2013-01-12 05:08:00,57.2,56.9,30.16,South,180,0.0,0.0,99,-99.99,,,-99.99,WeatherSnoop3.0,2013-01-12 10:08:00,
2013-01-12 05:13:00,57.6,57.3,30.16,South,180,0.0,0.0,99,-99.99,,,-99.99,WeatherSnoop3.0,2013-01-12 10:13:00,
2013-01-12 05:18:00,57.7,57.5,30.16,South,180,0.0,0.0,99,-99.99,,,-99.99,WeatherSnoop3.0,2013-01-12 10:18:00,
2013-01-12 05:23:00,58.3,58.0,30.16,South,180,0.0,0.0,99,-99.99,,,-99.99,WeatherSnoop3.0,2013-01-12 10:23:00,
2013-01-12 05:28:00,58.8,58.5,30.16,South,180,0.0,0.0,99,-99.99,,,-99.99,WeatherSnoop3.0,2013-01-12 10:28:00,
2013-01-12 05:33:00,59.0,58.4,30.16,South,180,0.0,0.0,98,-99.99,,,-99.99,WeatherSnoop3.0,2013-01-12 10:33:00,
2013-01-12 05:38:00,59.5,59.0,30.16,South,180,0.0,0.0,98,-99.99,,,-99.99,WeatherSnoop3.0,2013-01-12 10:38:00,
2013-01-12 05:43:00,60.4,59.9,30.16,South,180,0.0,0.0,98,-99.99,,,-99.99,WeatherSnoop3.0,2013-01-12 10:43:00,
2013-01-12 05:48:00,61.3,60.8,30.16,South,180,0.0,0.0,98,-99.99,,,-99.99,WeatherSnoop3.0,2013-01-12 10:48:00,
2013-01-12 05:53:00,61.2,60.6,30.17,South,180,0.0,0.0,98,-99.99,,,-99.99,WeatherSnoop3.0,2013-01-12 10:53:00,
2013-01-12 05:58:00,61.3,60.8,30.17,South,180,0.0,0.0,98,-99.99,,,-99.99,WeatherSnoop3.0,2013-01-12 10:58:00,
2013-01-12 06:03:00,61.5,60.9,30.17,South,180,0.0,0.0,98,-99.99,,,-99.99,WeatherSnoop3.0,2013-01-12 11:03:00,
2013-01-12 06:08:00,61.0,60.4,30.17,South,180,0.0,0.0,98,-99.99,,,-99.99,WeatherSnoop3.0,2013-01-12 11:08:00,
2013-01-12 06:13:00,61.0,60.4,30.17,South,180,0.0,0.0,98,-99.99,,,-99.99,WeatherSnoop3.0,2013-01-12 11:13:00,
2013-01-12 06:18:00,60.4,60.2,30.17,South,180,0.0,0.0,99,-99.99,,,-99.99,WeatherSnoop3.0,2013-01-12 11:18:00,
2013-01-12 06:23:00,60.3,60.0,30.17,South,180,0.0,0.0,99,-99.99,,,-99.99,WeatherSnoop3.0,2013-01-12 11:23:00,
2013-01-12 06:28:00,60.4,60.2,30.17,South,180,0.0,0.0,99,-99.99,,,-99.99,WeatherSnoop3.0,2013-01-12 11:28:00,
2013-01-12 06:33:00,60.3,60.0,30.17,South,180,0.0,0.0,99,-99.99,,,-99.99,WeatherSnoop3.0,2013-01-12 11:33:00,
2013-01-12 06:38:00,60.6,60.3,30.18,South,180,0.0,0.0,99,-99.99,,,-99.99,WeatherSnoop3.0,2013-01-12 11:38:00,
2013-01-12 06:43:00,60.8,60.2,30.18,South,180,0.0,0.0,98,-99.99,,,-99.99,WeatherSnoop3.0,2013-01-12 11:43:00,
2013-01-12 06:48:00,60.3,60.0,30.18,South,180,0.0,0.0,99,-99.99,,,-99.99,WeatherSnoop3.0,2013-01-12 11:48:00,
2013-01-12 06:53:00,60.4,60.2,30.18,South,180,0.0,0.0,99,-99.99,,,-99.99,WeatherSnoop3.0,2013-01-12 11:53:00,
2013-01-12 06:58:00,60.3,60.0,30.18,South,180,0.0,0.0,99,-99.99,,,-99.99,WeatherSnoop3.0,2013-01-12 11:58:00,
2013-01-12 07:03:00,60.3,60.0,30.18,South,180,0.0,0.0,99,-99.99,,,-99.99,WeatherSnoop3.0,2013-01-12 12:03:00,
2013-01-12 07:08:00,59.7,59.4,30.18,South,180,0.0,0.0,99,-99.99,,,-99.99,WeatherSnoop3.0,2013-01-12 12:08:00,
2013-01-12 07:13:00,59.5,59.3,30.18,South,180,0.0,0.0,99,-99.99,,,-99.99,WeatherSnoop3.0,2013-01-12 12:13:00,
2013-01-12 07:18:00,59.5,59.3,30.19,South,180,0.0,0.0,99,-99.99,,,-99.99,WeatherSnoop3.0,2013-01-12 12:18:00,
2013-01-12 07:23:00,59.2,58.9,30.19,South,180,0.0,0.0,99,-99.99,,,-99.99,WeatherSnoop3.0,2013-01-12 12:23:00,
2013-01-12 07:28:00,59.2,58.9,30.19,South,180,0.0,0.0,99,-99.99,,,-99.99,WeatherSnoop3.0,2013-01-12 12:28:00,
2013-01-12 07:33:00,59.2,58.6,30.19,South,180,0.0,0.0,98,-99.99,,,-99.99,WeatherSnoop3.0,2013-01-12 12:33:00,
2013-01-12 07:38:00,59.2,58.6,30.19,South,180,0.0,0.0,98,-99.99,,,-99.99,WeatherSnoop3.0,2013-01-12 12:38:00,
2013-01-12 07:43:00,59.0,58.4,30.19,South,180,0.0,0.0,98,-99.99,,,-99.99,WeatherSnoop3.0,2013-01-12 12:43:00,
2013-01-12 07:48:00,59.0,58.4,30.19,South,180,0.0,0.0,98,-99.99,,,-99.99,WeatherSnoop3.0,2013-01-12 12:48:00,
2013-01-12 07:53:00,58.8,58.5,30.19,South,180,0.0,0.0,99,-99.99,,,-99.99,WeatherSnoop3.0,2013-01-12 12:53:00,
2013-01-12 07:58:00,58.8,58.5,30.19,South,180,0.0,0.0,99,-99.99,,,-99.99,WeatherSnoop3.0,2013-01-12 12:58:00,
2013-01-12 08:03:00,59.0,58.4,30.19,South,180,0.0,0.0,98,-99.99,,,-99.99,WeatherSnoop3.0,2013-01-12 13:03:00,
2013-01-12 08:08:00,58.6,58.4,30.19,South,180,0.0,0.0,99,-99.99,,,-99.99,WeatherSnoop3.0,2013-01-12 13:08:00,
2013-01-12 08:13:00,59.0,58.4,30.19,South,180,0.0,0.0,98,-99.99,,,-99.99,WeatherSnoop3.0,2013-01-12 13:13:00,
2013-01-12 08:18:00,59.2,58.6,30.20,South,180,0.0,0.0,98,-99.99,,,-99.99,WeatherSnoop3.0,2013-01-12 13:18:00,
2013-01-12 08:23:00,59.5,59.3,30.20,South,180,0.0,0.0,99,-99.99,,,-99.99,WeatherSnoop3.0,2013-01-12 13:23:00,
2013-01-12 08:28:00,59.5,59.3,30.20,South,180,0.0,0.0,99,-99.99,,,-99.99,WeatherSnoop3.0,2013-01-12 13:28:00,
2013-01-12 08:33:00,59.7,59.4,30.20,South,180,0.0,0.0,99,-99.99,,,-99.99,WeatherSnoop3.0,2013-01-12 13:33:00,
2013-01-12 08:38:00,60.1,59.8,30.20,South,180,0.0,0.0,99,-99.99,,,-99.99,WeatherSnoop3.0,2013-01-12 13:38:00,
2013-01-12 08:43:00,60.8,60.2,30.20,South,180,0.0,0.0,98,-99.99,,,-99.99,WeatherSnoop3.0,2013-01-12 13:43:00,
2013-01-12 08:48:00,61.0,60.4,30.20,South,180,0.0,0.0,98,-99.99,,,-99.99,WeatherSnoop3.0,2013-01-12 13:48:00,
2013-01-12 08:53:00,61.5,60.9,30.20,South,180,0.0,0.0,98,-99.99,,,-99.99,WeatherSnoop3.0,2013-01-12 13:53:00,
2013-01-12 08:58:00,61.7,61.1,30.21,South,180,0.0,0.0,98,-99.99,,,-99.99,WeatherSnoop3.0,2013-01-12 13:58:00,
2013-01-12 09:03:00,62.1,61.5,30.21,South,180,0.0,0.0,98,-99.99,,,-99.99,WeatherSnoop3.0,2013-01-12 14:03:00,
2013-01-12 09:08:00,62.8,61.9,30.21,South,180,0.0,0.0,97,-99.99,,,-99.99,WeatherSnoop3.0,2013-01-12 14:08:00,
2013-01-12 09:13:00,63.1,62.3,30.21,South,180,0.0,0.0,97,-99.99,,,-99.99,WeatherSnoop3.0,2013-01-12 14:13:00,
2013-01-12 09:18:00,64.0,63.2,30.21,South,180,0.0,0.0,97,-99.99,,,-99.99,WeatherSnoop3.0,2013-01-12 14:18:00,
2013-01-12 09:23:00,64.2,63.3,30.21,South,180,0.0,0.0,97,-99.99,,,-99.99,WeatherSnoop3.0,2013-01-12 14:23:00,
2013-01-12 09:28:00,64.0,63.2,30.21,South,180,0.0,0.0,97,-99.99,,,-99.99,WeatherSnoop3.0,2013-01-12 14:28:00,
2013-01-12 09:33:00,64.0,63.2,30.21,South,180,0.0,0.0,97,-99.99,,,-99.99,WeatherSnoop3.0,2013-01-12 14:33:00,
2013-01-12 09:38:00,63.3,62.5,30.21,South,180,0.7,1.6,97,-99.99,,,-99.99,WeatherSnoop3.0,2013-01-12 14:38:00,
2013-01-12 09:43:00,64.0,63.2,30.21,South,180,0.0,0.0,97,-99.99,,,-99.99,WeatherSnoop3.0,2013-01-12 14:43:00,
2013-01-12 09:48:00,63.9,63.0,30.21,South,180,0.0,0.0,97,-99.99,,,-99.99,WeatherSnoop3.0,2013-01-12 14:48:00,
2013-01-12 09:53:00,64.6,64.0,30.21,South,180,0.0,0.0,98,-99.99,,,-99.99,WeatherSnoop3.0,2013-01-12 14:53:00,
2013-01-12 09:58:00,65.5,64.9,30.21,South,180,0.0,0.0,98,-99.99,,,-99.99,WeatherSnoop3.0,2013-01-12 14:58:00,
2013-01-12 10:03:00,65.8,65.3,30.21,South,180,0.7,1.6,98,-99.99,,,-99.99,WeatherSnoop3.0,2013-01-12 15:03:00,
2013-01-12 10:08:00,66.0,65.7,30.21,South,180,0.0,0.7,99,-99.99,,,-99.99,WeatherSnoop3.0,2013-01-12 15:08:00,
2013-01-12 10:13:00,66.9,66.3,30.21,South,180,0.0,0.0,98,-99.99,,,-99.99,WeatherSnoop3.0,2013-01-12 15:13:00,
2013-01-12 10:18:00,67.8,67.2,30.21,East,90,0.7,1.6,98,-99.99,,,-99.99,WeatherSnoop3.0,2013-01-12 15:18:00,
2013-01-12 10:23:00,68.2,67.3,30.21,South,180,0.7,1.6,97,-99.99,,,-99.99,WeatherSnoop3.0,2013-01-12 15:23:00,
2013-01-12 10:28:00,68.2,67.3,30.21,South,180,0.7,1.6,97,-99.99,,,-99.99,WeatherSnoop3.0,2013-01-12 15:28:00,
2013-01-12 10:33:00,68.9,67.7,30.21,South,180,0.7,1.6,96,-99.99,,,-99.99,WeatherSnoop3.0,2013-01-12 15:33:00,
2013-01-12 10:38:00,69.4,67.9,30.20,South,180,0.0,0.0,95,-99.99,,,-99.99,WeatherSnoop3.0,2013-01-12 15:38:00,
2013-01-12 10:43:00,69.6,67.5,30.20,South,180,0.7,1.6,93,-99.99,,,-99.99,WeatherSnoop3.0,2013-01-12 15:43:00,
2013-01-12 10:48:00,70.3,66.6,30.20,South,180,0.7,1.6,88,-99.99,,,-99.99,WeatherSnoop3.0,2013-01-12 15:48:00,
2013-01-12 10:53:00,71.2,65.8,30.20,South,180,1.6,2.2,83,-99.99,,,-99.99,WeatherSnoop3.0,2013-01-12 15:53:00,
2013-01-12 10:58:00,72.9,65.2,30.20,South,180,0.7,1.6,77,-99.99,,,-99.99,WeatherSnoop3.0,2013-01-12 15:58:00,
2013-01-12 11:03:00,73.9,65.9,30.20,South,180,0.7,1.6,76,-99.99,,,-99.99,WeatherSnoop3.0,2013-01-12 16:03:00,
2013-01-12 11:08:00,73.9,64.7,30.20,South,180,1.6,2.2,73,-99.99,,,-99.99,WeatherSnoop3.0,2013-01-12 16:08:00,
2013-01-12 11:13:00,74.8,65.6,30.19,South,180,0.0,0.0,73,-99.99,,,-99.99,WeatherSnoop3.0,2013-01-12 16:13:00,
2013-01-12 11:18:00,75.9,65.4,30.19,South,180,0.7,1.6,70,-99.99,,,-99.99,WeatherSnoop3.0,2013-01-12 16:18:00,
2013-01-12 11:23:00,76.8,65.0,30.19,East,90,0.7,1.6,67,-99.99,,,-99.99,WeatherSnoop3.0,2013-01-12 16:23:00,
2013-01-12 11:28:00,74.1,62.9,30.19,South,180,1.6,3.1,68,-99.99,,,-99.99,WeatherSnoop3.0,2013-01-12 16:28:00,
2013-01-12 11:33:00,75.0,64.6,30.19,South,180,1.6,2.2,70,-99.99,,,-99.99,WeatherSnoop3.0,2013-01-12 16:33:00,
2013-01-12 11:38:00,76.5,65.1,30.18,South,180,1.6,2.2,68,-99.99,,,-99.99,WeatherSnoop3.0,2013-01-12 16:38:00,
2013-01-12 11:43:00,76.3,64.5,30.18,South,180,1.6,2.2,67,-99.99,,,-99.99,WeatherSnoop3.0,2013-01-12 16:43:00,
2013-01-12 11:48:00,75.4,63.2,30.18,South,180,1.6,2.2,66,-99.99,,,-99.99,WeatherSnoop3.0,2013-01-12 16:48:00,
2013-01-12 11:53:00,75.0,64.1,30.18,South,180,1.6,3.1,69,-99.99,,,-99.99,WeatherSnoop3.0,2013-01-12 16:53:00,
2013-01-12 11:58:00,75.4,64.5,30.17,South,180,1.6,2.2,69,-99.99,,,-99.99,WeatherSnoop3.0,2013-01-12 16:58:00,
2013-01-12 12:03:00,76.1,64.3,30.17,South,180,0.7,1.6,67,-99.99,,,-99.99,WeatherSnoop3.0,2013-01-12 17:03:00,
2013-01-12 12:08:00,75.7,64.0,30.17,South,180,0.7,1.6,67,-99.99,,,-99.99,WeatherSnoop3.0,2013-01-12 17:08:00,
2013-01-12 12:13:00,74.7,63.8,30.17,South,180,0.7,2.2,69,-99.99,,,-99.99,WeatherSnoop3.0,2013-01-12 17:13:00,
2013-01-12 12:18:00,73.9,62.7,30.17,South,180,1.6,2.2,68,-99.99,,,-99.99,WeatherSnoop3.0,2013-01-12 17:18:00,
2013-01-12 12:23:00,74.7,63.8,30.17,South,180,1.6,2.2,69,-99.99,,,-99.99,WeatherSnoop3.0,2013-01-12 17:23:00,
2013-01-12 12:28:00,74.5,63.6,30.16,South,180,1.6,2.2,69,-99.99,,,-99.99,WeatherSnoop3.0,2013-01-12 17:28:00,
2013-01-12 12:36:00,76.3,64.9,30.16,South,180,0.7,2.2,68,-99.99,,,-99.99,WeatherSnoop3.0,2013-01-12 17:36:00,
2013-01-12 12:41:00,77.0,64.3,30.16,South,180,1.6,2.2,65,-99.99,,,-99.99,WeatherSnoop3.0,2013-01-12 17:41:00,
2013-01-12 12:46:00,75.6,63.4,30.16,South,180,1.6,3.1,66,-99.99,,,-99.99,WeatherSnoop3.0,2013-01-12 17:46:00,
2013-01-12 12:51:00,76.8,64.6,30.15,South,180,0.7,2.2,66,-99.99,,,-99.99,WeatherSnoop3.0,2013-01-12 17:51:00,
2013-01-12 12:56:00,75.7,63.1,30.15,South,180,1.6,3.1,65,-99.99,,,-99.99,WeatherSnoop3.0,2013-01-12 17:56:00,
2013-01-12 13:01:00,78.6,65.4,30.15,South,180,0.7,2.2,64,-99.99,,,-99.99,WeatherSnoop3.0,2013-01-12 18:01:00,
2013-01-12 13:52:00,75.6,61.6,30.15,South,180,2.2,3.8,62,-99.99,,,-99.99,WeatherSnoop3.0,2013-01-12 18:52:00,
2013-01-12 13:58:00,75.7,61.8,30.14,South,180,0.7,2.2,62,-99.99,,,-99.99,WeatherSnoop3.0,2013-01-12 18:58:00,
2013-01-12 14:03:00,76.5,62.0,30.14,South,180,0.0,0.0,61,-99.99,,,-99.99,WeatherSnoop3.0,2013-01-12 19:03:00,
2013-01-12 14:08:00,77.0,60.6,30.14,South,180,0.7,1.6,57,-99.99,,,-99.99,WeatherSnoop3.0,2013-01-12 19:08:00,
2013-01-12 14:13:00,76.6,60.7,30.14,East,90,0.7,2.2,58,-99.99,,,-99.99,WeatherSnoop3.0,2013-01-12 19:13:00,
2013-01-12 14:18:00,76.1,60.2,30.14,South,180,2.2,4.5,58,-99.99,,,-99.99,WeatherSnoop3.0,2013-01-12 19:18:00,
2013-01-12 14:23:00,76.1,60.2,30.14,SW,225,0.7,1.6,58,-99.99,,,-99.99,WeatherSnoop3.0,2013-01-12 19:23:00,
2013-01-12 14:28:00,76.1,60.2,30.14,South,180,1.6,2.2,58,-99.99,,,-99.99,WeatherSnoop3.0,2013-01-12 19:28:00,
2013-01-12 14:33:00,75.6,60.2,30.14,South,180,1.6,2.2,59,-99.99,,,-99.99,WeatherSnoop3.0,2013-01-12 19:33:00,
2013-01-12 14:38:00,75.2,60.8,30.14,SW,225,1.6,2.2,61,-99.99,,,-99.99,WeatherSnoop3.0,2013-01-12 19:38:00,
2013-01-12 14:43:00,76.6,62.6,30.14,East,90,0.7,2.2,62,-99.99,,,-99.99,WeatherSnoop3.0,2013-01-12 19:43:00,
2013-01-12 14:48:00,76.3,61.8,30.14,South,180,0.7,3.1,61,-99.99,,,-99.99,WeatherSnoop3.0,2013-01-12 19:48:00,
2013-01-12 14:53:00,75.7,61.3,30.14,East,90,1.6,2.2,61,-99.99,,,-99.99,WeatherSnoop3.0,2013-01-12 19:53:00,
2013-01-12 14:58:00,75.0,61.6,30.14,SW,225,0.7,3.1,63,-99.99,,,-99.99,WeatherSnoop3.0,2013-01-12 19:58:00,
2013-01-12 15:03:00,74.7,62.1,30.14,South,180,0.7,1.6,65,-99.99,,,-99.99,WeatherSnoop3.0,2013-01-12 20:03:00,
2013-01-12 15:08:00,74.3,61.8,30.14,South,180,0.0,0.7,65,-99.99,,,-99.99,WeatherSnoop3.0,2013-01-12 20:08:00,
2013-01-12 15:13:00,73.9,61.4,30.14,South,180,1.6,2.2,65,-99.99,,,-99.99,WeatherSnoop3.0,2013-01-12 20:13:00,
2013-01-12 15:18:00,73.6,61.5,30.14,South,180,0.7,2.2,66,-99.99,,,-99.99,WeatherSnoop3.0,2013-01-12 20:18:00,
2013-01-12 15:23:00,73.6,61.5,30.14,South,180,1.6,2.2,66,-99.99,,,-99.99,WeatherSnoop3.0,2013-01-12 20:23:00,
2013-01-12 15:28:00,73.6,61.5,30.14,South,180,0.0,0.0,66,-99.99,,,-99.99,WeatherSnoop3.0,2013-01-12 20:28:00,
2013-01-12 15:33:00,73.6,61.5,30.14,South,180,0.0,0.0,66,-99.99,,,-99.99,WeatherSnoop3.0,2013-01-12 20:33:00,
2013-01-12 15:38:00,73.6,61.9,30.14,West,270,1.6,3.1,67,-99.99,,,-99.99,WeatherSnoop3.0,2013-01-12 20:38:00,
2013-01-12 15:43:00,73.2,61.2,30.14,South,180,0.7,1.6,66,-99.99,,,-99.99,WeatherSnoop3.0,2013-01-12 20:43:00,
2013-01-12 15:48:00,73.2,61.2,30.14,East,90,0.7,1.6,66,-99.99,,,-99.99,WeatherSnoop3.0,2013-01-12 20:48:00,
2013-01-12 15:53:00,73.4,61.8,30.14,North,0,0.0,0.0,67,-99.99,,,-99.99,WeatherSnoop3.0,2013-01-12 20:53:00,
2013-01-12 15:58:00,73.6,61.5,30.14,South,180,0.7,1.6,66,-99.99,,,-99.99,WeatherSnoop3.0,2013-01-12 20:58:00,
2013-01-12 16:03:00,72.7,60.7,30.14,South,180,1.6,2.2,66,-99.99,,,-99.99,WeatherSnoop3.0,2013-01-12 21:03:00,
2013-01-12 16:08:00,73.0,61.0,30.14,South,180,0.7,1.6,66,-99.99,,,-99.99,WeatherSnoop3.0,2013-01-12 21:08:00,
2013-01-12 16:13:00,73.8,61.7,30.14,South,180,0.0,0.0,66,-99.99,,,-99.99,WeatherSnoop3.0,2013-01-12 21:13:00,
2013-01-12 16:18:00,72.7,60.7,30.14,South,180,0.7,2.2,66,-99.99,,,-99.99,WeatherSnoop3.0,2013-01-12 21:18:00,
2013-01-12 16:23:00,72.3,60.3,30.14,South,180,0.0,0.7,66,-99.99,,,-99.99,WeatherSnoop3.0,2013-01-12 21:23:00,
2013-01-12 16:28:00,72.0,60.0,30.15,South,180,0.7,1.6,66,-99.99,,,-99.99,WeatherSnoop3.0,2013-01-12 21:28:00,
2013-01-12 16:33:00,71.8,60.2,30.14,South,180,0.0,0.7,67,-99.99,,,-99.99,WeatherSnoop3.0,2013-01-12 21:33:00,
2013-01-12 16:38:00,71.1,60.4,30.14,South,180,0.0,0.0,69,-99.99,,,-99.99,WeatherSnoop3.0,2013-01-12 21:38:00,
2013-01-12 16:43:00,71.2,60.9,30.14,South,180,0.0,0.0,70,-99.99,,,-99.99,WeatherSnoop3.0,2013-01-12 21:43:00,
2013-01-12 16:48:00,70.7,60.4,30.14,South,180,0.0,0.0,70,-99.99,,,-99.99,WeatherSnoop3.0,2013-01-12 21:48:00,
2013-01-12 16:53:00,70.0,60.1,30.15,South,180,0.7,1.6,71,-99.99,,,-99.99,WeatherSnoop3.0,2013-01-12 21:53:00,
2013-01-12 16:58:00,69.4,60.4,30.14,South,180,0.0,0.0,73,-99.99,,,-99.99,WeatherSnoop3.0,2013-01-12 21:58:00,
2013-01-12 17:03:00,69.3,60.2,30.14,South,180,0.0,0.0,73,-99.99,,,-99.99,WeatherSnoop3.0,2013-01-12 22:03:00,
2013-01-12 17:08:00,68.9,60.3,30.14,East,90,0.0,0.0,74,-99.99,,,-99.99,WeatherSnoop3.0,2013-01-12 22:08:00,
2013-01-12 17:13:00,68.5,60.3,30.15,East,90,0.0,0.0,75,-99.99,,,-99.99,WeatherSnoop3.0,2013-01-12 22:13:00,
2013-01-12 17:18:00,68.2,60.3,30.14,East,90,0.0,0.0,76,-99.99,,,-99.99,WeatherSnoop3.0,2013-01-12 22:18:00,
2013-01-12 17:23:00,67.8,60.7,30.14,East,90,0.0,0.0,78,-99.99,,,-99.99,WeatherSnoop3.0,2013-01-12 22:23:00,
2013-01-12 17:28:00,67.3,60.5,30.14,East,90,0.0,0.0,79,-99.99,,,-99.99,WeatherSnoop3.0,2013-01-12 22:28:00,
2013-01-12 17:33:00,66.9,60.5,30.14,East,90,0.7,1.6,80,-99.99,,,-99.99,WeatherSnoop3.0,2013-01-12 22:33:00,
2013-01-12 17:38:00,66.2,60.2,30.14,North,0,0.0,0.0,81,-99.99,,,-99.99,WeatherSnoop3.0,2013-01-12 22:38:00,
2013-01-12 17:43:00,65.7,60.4,30.14,East,90,0.0,0.0,83,-99.99,,,-99.99,WeatherSnoop3.0,2013-01-12 22:43:00,
2013-01-12 17:48:00,65.1,60.2,30.14,East,90,0.0,0.0,84,-99.99,,,-99.99,WeatherSnoop3.0,2013-01-12 22:48:00,
2013-01-12 17:54:00,64.8,60.1,30.14,East,90,0.0,0.0,85,-99.99,,,-99.99,WeatherSnoop3.0,2013-01-12 22:54:00,
2013-01-12 17:59:00,64.4,59.8,30.14,East,90,0.0,0.0,85,-99.99,,,-99.99,WeatherSnoop3.0,2013-01-12 22:59:00,
2013-01-12 18:04:00,64.4,59.8,30.14,East,90,0.0,0.0,85,-99.99,,,-99.99,WeatherSnoop3.0,2013-01-12 23:04:00,
2013-01-12 18:09:00,63.7,59.1,30.14,East,90,0.0,0.0,85,-99.99,,,-99.99,WeatherSnoop3.0,2013-01-12 23:09:00,
2013-01-12 18:14:00,63.7,59.4,30.14,East,90,0.0,0.0,86,-99.99,,,-99.99,WeatherSnoop3.0,2013-01-12 23:14:00,
2013-01-12 18:19:00,63.3,59.1,30.14,East,90,0.0,0.0,86,-99.99,,,-99.99,WeatherSnoop3.0,2013-01-12 23:19:00,
2013-01-12 18:24:00,63.3,59.4,30.14,East,90,0.0,0.0,87,-99.99,,,-99.99,WeatherSnoop3.0,2013-01-12 23:24:00,
2013-01-12 18:29:00,63.1,59.2,30.15,East,90,0.0,0.0,87,-99.99,,,-99.99,WeatherSnoop3.0,2013-01-12 23:29:00,
2013-01-12 18:34:00,63.0,59.3,30.15,East,90,0.0,0.0,88,-99.99,,,-99.99,WeatherSnoop3.0,2013-01-12 23:34:00,
2013-01-12 18:39:00,62.8,59.2,30.15,East,90,0.0,0.0,88,-99.99,,,-99.99,WeatherSnoop3.0,2013-01-12 23:39:00,
2013-01-12 18:44:00,62.6,59.3,30.15,East,90,0.0,0.0,89,-99.99,,,-99.99,WeatherSnoop3.0,2013-01-12 23:44:00,
2013-01-12 18:49:00,62.4,59.4,30.14,East,90,0.0,0.0,90,-99.99,,,-99.99,WeatherSnoop3.0,2013-01-12 23:49:00,
2013-01-12 18:54:00,61.7,58.7,30.14,East,90,0.0,0.0,90,-99.99,,,-99.99,WeatherSnoop3.0,2013-01-12 23:54:00,
2013-01-12 18:59:00,61.5,58.6,30.14,East,90,0.0,0.0,90,-99.99,,,-99.99,WeatherSnoop3.0,2013-01-12 23:59:00,
2013-01-12 19:04:00,61.3,58.7,30.14,East,90,0.0,0.0,91,-99.99,,,-99.99,WeatherSnoop3.0,2013-01-13 00:04:00,
2013-01-12 19:09:00,61.2,58.5,30.14,East,90,0.0,0.0,91,-99.99,,,-99.99,WeatherSnoop3.0,2013-01-13 00:09:00,
2013-01-12 19:14:00,60.8,58.5,30.14,East,90,0.0,0.0,92,-99.99,,,-99.99,WeatherSnoop3.0,2013-01-13 00:14:00,
2013-01-12 19:19:00,60.4,58.4,30.14,East,90,0.0,0.0,93,-99.99,,,-99.99,WeatherSnoop3.0,2013-01-13 00:19:00,
2013-01-12 19:24:00,60.4,58.4,30.14,East,90,0.0,0.0,93,-99.99,,,-99.99,WeatherSnoop3.0,2013-01-13 00:24:00,
2013-01-12 19:29:00,60.4,58.4,30.14,East,90,0.0,0.0,93,-99.99,,,-99.99,WeatherSnoop3.0,2013-01-13 00:29:00,
2013-01-12 19:34:00,60.1,58.0,30.14,East,90,0.0,0.0,93,-99.99,,,-99.99,WeatherSnoop3.0,2013-01-13 00:34:00,
2013-01-12 19:39:00,59.9,57.9,30.14,East,90,0.0,0.0,93,-99.99,,,-99.99,WeatherSnoop3.0,2013-01-13 00:39:00,
2013-01-12 19:44:00,59.9,57.9,30.14,East,90,0.0,0.0,93,-99.99,,,-99.99,WeatherSnoop3.0,2013-01-13 00:44:00,
2013-01-12 19:49:00,59.7,58.0,30.14,East,90,0.0,0.0,94,-99.99,,,-99.99,WeatherSnoop3.0,2013-01-13 00:49:00,
2013-01-12 19:54:00,59.5,57.8,30.13,East,90,0.0,0.0,94,-99.99,,,-99.99,WeatherSnoop3.0,2013-01-13 00:54:00,
2013-01-12 19:59:00,59.7,58.0,30.13,East,90,0.0,0.0,94,-99.99,,,-99.99,WeatherSnoop3.0,2013-01-13 00:59:00,
2013-01-12 20:04:00,59.7,58.0,30.13,East,90,0.0,0.0,94,-99.99,,,-99.99,WeatherSnoop3.0,2013-01-13 01:04:00,
2013-01-12 20:09:00,59.4,57.6,30.14,East,90,0.0,0.0,94,-99.99,,,-99.99,WeatherSnoop3.0,2013-01-13 01:09:00,
2013-01-12 20:14:00,59.7,58.0,30.13,East,90,0.0,0.0,94,-99.99,,,-99.99,WeatherSnoop3.0,2013-01-13 01:14:00,
2013-01-12 20:19:00,60.1,58.6,30.13,South,180,0.0,0.0,95,-99.99,,,-99.99,WeatherSnoop3.0,2013-01-13 01:19:00,
2013-01-12 20:24:00,60.4,59.0,30.13,South,180,0.7,1.6,95,-99.99,,,-99.99,WeatherSnoop3.0,2013-01-13 01:24:00,
2013-01-12 20:29:00,60.4,59.0,30.13,South,180,0.0,0.0,95,-99.99,,,-99.99,WeatherSnoop3.0,2013-01-13 01:29:00,
2013-01-12 20:34:00,60.1,58.6,30.13,South,180,0.0,0.0,95,-99.99,,,-99.99,WeatherSnoop3.0,2013-01-13 01:34:00,
2013-01-12 20:39:00,60.1,58.6,30.13,South,180,0.0,0.0,95,-99.99,,,-99.99,WeatherSnoop3.0,2013-01-13 01:39:00,
2013-01-12 20:44:00,59.9,58.5,30.13,South,180,0.0,0.0,95,-99.99,,,-99.99,WeatherSnoop3.0,2013-01-13 01:44:00,
2013-01-12 20:49:00,59.9,58.5,30.13,South,180,0.0,0.0,95,-99.99,,,-99.99,WeatherSnoop3.0,2013-01-13 01:49:00,
2013-01-12 20:54:00,59.9,58.5,30.12,South,180,0.0,0.0,95,-99.99,,,-99.99,WeatherSnoop3.0,2013-01-13 01:54:00,
2013-01-12 20:59:00,59.7,58.3,30.12,South,180,0.0,0.0,95,-99.99,,,-99.99,WeatherSnoop3.0,2013-01-13 01:59:00,
2013-01-12 21:04:00,59.7,58.3,30.12,South,180,0.0,0.0,95,-99.99,,,-99.99,WeatherSnoop3.0,2013-01-13 02:04:00,
2013-01-12 21:09:00,59.9,58.5,30.13,South,180,0.0,0.0,95,-99.99,,,-99.99,WeatherSnoop3.0,2013-01-13 02:09:00,
2013-01-12 21:14:00,59.7,58.6,30.13,South,180,0.0,0.0,96,-99.99,,,-99.99,WeatherSnoop3.0,2013-01-13 02:14:00,
2013-01-12 21:19:00,59.5,58.4,30.13,South,180,0.0,0.0,96,-99.99,,,-99.99,WeatherSnoop3.0,2013-01-13 02:19:00,
2013-01-12 21:25:00,59.5,58.4,30.12,South,180,0.0,0.0,96,-99.99,,,-99.99,WeatherSnoop3.0,2013-01-13 02:25:00,
2013-01-12 21:30:00,59.4,58.2,30.13,South,180,0.0,0.0,96,-99.99,,,-99.99,WeatherSnoop3.0,2013-01-13 02:30:00,
2013-01-12 21:35:00,59.4,58.2,30.13,South,180,0.0,0.0,96,-99.99,,,-99.99,WeatherSnoop3.0,2013-01-13 02:35:00,
2013-01-12 21:40:00,59.2,58.0,30.13,South,180,0.0,0.0,96,-99.99,,,-99.99,WeatherSnoop3.0,2013-01-13 02:40:00,
2013-01-12 21:45:00,59.0,57.9,30.13,South,180,0.0,0.0,96,-99.99,,,-99.99,WeatherSnoop3.0,2013-01-13 02:45:00,
2013-01-12 21:50:00,59.0,57.9,30.13,South,180,0.0,0.0,96,-99.99,,,-99.99,WeatherSnoop3.0,2013-01-13 02:50:00,
2013-01-12 21:55:00,58.6,57.8,30.13,South,180,0.0,0.0,97,-99.99,,,-99.99,WeatherSnoop3.0,2013-01-13 02:55:00,
2013-01-12 22:00:00,58.5,57.6,30.13,South,180,0.0,0.0,97,-99.99,,,-99.99,WeatherSnoop3.0,2013-01-13 03:00:00,
2013-01-12 22:05:00,58.5,57.6,30.13,South,180,0.0,0.0,97,-99.99,,,-99.99,WeatherSnoop3.0,2013-01-13 03:05:00,
2013-01-12 22:10:00,58.5,57.6,30.13,South,180,0.0,0.0,97,-99.99,,,-99.99,WeatherSnoop3.0,2013-01-13 03:10:00,
2013-01-12 22:15:00,58.6,57.8,30.13,South,180,0.0,0.0,97,-99.99,,,-99.99,WeatherSnoop3.0,2013-01-13 03:15:00,
2013-01-12 22:20:00,58.6,57.8,30.13,South,180,0.0,0.0,97,-99.99,,,-99.99,WeatherSnoop3.0,2013-01-13 03:20:00,
2013-01-12 22:25:00,58.5,57.6,30.13,South,180,0.0,0.0,97,-99.99,,,-99.99,WeatherSnoop3.0,2013-01-13 03:25:00,
2013-01-12 22:30:00,58.3,57.4,30.13,South,180,0.0,0.0,97,-99.99,,,-99.99,WeatherSnoop3.0,2013-01-13 03:30:00,
2013-01-12 22:35:00,58.1,57.3,30.13,South,180,0.0,0.0,97,-99.99,,,-99.99,WeatherSnoop3.0,2013-01-13 03:35:00,
2013-01-12 22:40:00,58.1,57.3,30.13,South,180,0.0,0.0,97,-99.99,,,-99.99,WeatherSnoop3.0,2013-01-13 03:40:00,
2013-01-12 22:45:00,58.1,57.3,30.13,South,180,0.0,0.0,97,-99.99,,,-99.99,WeatherSnoop3.0,2013-01-13 03:45:00,
2013-01-12 22:50:00,58.1,57.3,30.13,South,180,0.0,0.0,97,-99.99,,,-99.99,WeatherSnoop3.0,2013-01-13 03:50:00,
2013-01-12 22:55:00,57.9,57.1,30.13,South,180,0.0,0.0,97,-99.99,,,-99.99,WeatherSnoop3.0,2013-01-13 03:55:00,
2013-01-12 23:00:00,58.1,57.3,30.14,South,180,0.0,0.0,97,-99.99,,,-99.99,WeatherSnoop3.0,2013-01-13 04:00:00,
2013-01-12 23:05:00,57.9,57.1,30.14,South,180,0.0,0.0,97,-99.99,,,-99.99,WeatherSnoop3.0,2013-01-13 04:05:00,
2013-01-12 23:10:00,57.9,57.1,30.14,South,180,0.0,0.0,97,-99.99,,,-99.99,WeatherSnoop3.0,2013-01-13 04:10:00,
2013-01-12 23:15:00,57.7,56.9,30.14,South,180,0.0,0.0,97,-99.99,,,-99.99,WeatherSnoop3.0,2013-01-13 04:15:00,
2013-01-12 23:20:00,57.7,56.9,30.14,South,180,0.0,0.0,97,-99.99,,,-99.99,WeatherSnoop3.0,2013-01-13 04:20:00,
2013-01-12 23:25:00,57.7,56.9,30.14,South,180,0.0,0.0,97,-99.99,,,-99.99,WeatherSnoop3.0,2013-01-13 04:25:00,
2013-01-12 23:30:00,58.1,57.3,30.13,South,180,0.0,0.0,97,-99.99,,,-99.99,WeatherSnoop3.0,2013-01-13 04:30:00,
2013-01-12 23:35:00,58.1,57.3,30.14,South,180,0.0,0.0,97,-99.99,,,-99.99,WeatherSnoop3.0,2013-01-13 04:35:00,
2013-01-12 23:40:00,58.3,57.4,30.13,South,180,0.0,0.0,97,-99.99,,,-99.99,WeatherSnoop3.0,2013-01-13 04:40:00,
2013-01-12 23:45:00,58.3,57.4,30.13,South,180,0.0,0.0,97,-99.99,,,-99.99,WeatherSnoop3.0,2013-01-13 04:45:00,
2013-01-12 23:50:00,58.1,57.3,30.14,South,180,0.0,0.0,97,-99.99,,,-99.99,WeatherSnoop3.0,2013-01-13 04:50:00,
2013-01-12 23:55:00,58.1,57.3,30.14,South,180,0.0,0.0,97,-99.99,,,-99.99,WeatherSnoop3.0,2013-01-13 04:55:00,